CheckWX is a tool to help pilots better visualize weather data.  It is not intended as a substitute for an official pre-flight weather briefing.

21:13:29 UTC

KHRJ METAR
Harnett Regional Jetport Airport
Erwin, North Carolina, USA
Current

13 mins ago

KHRJ 182100Z AUTO 30003KT 10SM CLR 18/02 A3009 RMK AO2 T01790022
Observed
Feb-18 @ 21:00 UTC
Wind
  • 300° at 3 KTS
Visibility
10 SM
Flight Rules
VFR
Cloud Levels
  • Clear skies
Temperature
18°C / 64°F
Dewpoint
C / 36°F
Humidity
34%
Altimeter
30.09" Hg
Pressure
1018.92 hPa
Previous

33 mins ago

KHRJ 182040Z AUTO 30005KT 10SM CLR 18/02 A3009 RMK AO2 T01800021
Observed
Feb-18 @ 20:40 UTC
Wind
  • 300° at 5 KTS
Visibility
10 SM
Flight Rules
VFR
Cloud Levels
  • Clear skies
Temperature
18°C / 64°F
Dewpoint
C / 36°F
Humidity
34%
Altimeter
30.09" Hg
Pressure
1018.92 hPa
Previous

53 mins ago

KHRJ 182020Z AUTO 29004KT 10SM CLR 18/04 A3009 RMK AO2 T01800035
Observed
Feb-18 @ 20:20 UTC
Wind
  • 290° at 4 KTS
Visibility
10 SM
Flight Rules
VFR
Cloud Levels
  • Clear skies
Temperature
18°C / 64°F
Dewpoint
C / 39°F
Humidity
40%
Altimeter
30.09" Hg
Pressure
1018.92 hPa